Time;durP1;ratioP1;P1;durP2;ratioP2;P2;SDS_P1;SDS_P2;PMS_P1;PMS_P2;Temp;Humidity;BMP_temperature;BMP_pressure;BME280_temperature;BME280_humidity;BME280_pressure;Samples;Min_cycle;Max_cycle;Signal;HPM_P1;HPM_P2
2023/04/16 00:02:40;;;;;;;11.23;7.43;;;23.50;45.90;;;;;;6153031;28;81075;-65
2023/04/16 00:05:41;;;;;;;10.68;6.90;;;23.50;45.90;;;;;;6152996;28;83348;-66
2023/04/16 00:08:42;;;;;;;10.80;7.20;;;23.50;45.90;;;;;;6152141;28;81185;-66
2023/04/16 00:11:42;;;;;;;10.70;7.38;;;23.50;45.90;;;;;;6154458;28;80536;-66
2023/04/16 00:14:43;;;;;;;9.05;6.57;;;23.50;45.90;;;;;;6153208;28;82199;-66
2023/04/16 00:17:44;;;;;;;13.30;7.53;;;23.50;46.00;;;;;;6153392;28;82036;-66
2023/04/16 00:20:44;;;;;;;9.70;6.75;;;23.50;45.90;;;;;;6153790;28;81974;-72
2023/04/16 00:23:45;;;;;;;10.02;6.82;;;23.50;45.90;;;;;;6154150;28;81386;-71
2023/04/16 00:26:45;;;;;;;10.75;7.15;;;23.50;45.90;;;;;;6153135;28;82884;-69
2023/04/16 00:29:46;;;;;;;10.32;6.65;;;23.50;45.90;;;;;;6141686;28;83876;-70
2023/04/16 00:32:47;;;;;;;11.50;6.63;;;23.50;45.90;;;;;;6151762;28;83182;-70
2023/04/16 00:35:47;;;;;;;10.70;6.28;;;23.50;45.90;;;;;;6152595;28;81475;-70
2023/04/16 00:38:48;;;;;;;10.73;7.38;;;23.50;45.80;;;;;;6150818;28;83376;-69
2023/04/16 00:41:49;;;;;;;10.48;7.00;;;23.50;46.10;;;;;;6151899;28;80944;-72
2023/04/16 00:44:49;;;;;;;16.20;7.65;;;23.50;46.00;;;;;;6151096;28;80402;-73
2023/04/16 00:47:50;;;;;;;10.65;6.43;;;23.50;46.30;;;;;;6150823;28;81281;-71
2023/04/16 00:50:50;;;;;;;10.60;7.10;;;23.40;46.00;;;;;;6151181;28;81626;-72
2023/04/16 00:53:51;;;;;;;9.52;6.57;;;23.50;46.10;;;;;;6151653;28;80955;-71
2023/04/16 00:56:51;;;;;;;13.20;6.80;;;23.50;46.00;;;;;;6174890;28;87761;-70
2023/04/16 00:59:52;;;;;;;11.68;7.03;;;23.50;45.90;;;;;;6153379;28;80590;-68
2023/04/16 01:02:53;;;;;;;10.57;6.57;;;23.50;45.80;;;;;;6152013;28;80502;-69
2023/04/16 01:05:53;;;;;;;9.90;6.60;;;23.50;45.70;;;;;;6151094;28;83119;-69
2023/04/16 01:08:54;;;;;;;9.07;6.47;;;23.50;45.60;;;;;;6152373;28;80715;-71
2023/04/16 01:11:54;;;;;;;10.38;6.95;;;23.50;45.50;;;;;;6151069;28;81087;-69
2023/04/16 01:14:55;;;;;;;9.25;6.20;;;23.50;45.50;;;;;;6152478;28;82418;-64
2023/04/16 01:17:56;;;;;;;12.35;6.93;;;23.50;45.50;;;;;;6147808;28;81220;-65
2023/04/16 01:20:56;;;;;;;8.68;6.22;;;23.50;45.50;;;;;;6149205;28;86057;-68
2023/04/16 01:23:57;;;;;;;11.57;6.95;;;23.50;45.50;;;;;;6151589;28;80611;-68
2023/04/16 01:26:58;;;;;;;11.38;6.53;;;23.40;45.40;;;;;;6150188;28;83398;-66
2023/04/16 01:29:58;;;;;;;9.38;6.13;;;23.40;45.40;;;;;;6149106;28;83028;-67
2023/04/16 01:33:11;;;;;;;9.55;6.85;;;23.40;45.50;;;;;;6150409;28;80599;-69
2023/04/16 01:36:11;;;;;;;9.00;6.40;;;23.40;45.50;;;;;;6156106;28;80539;-70
2023/04/16 01:39:14;;;;;;;8.70;6.07;;;23.40;45.30;;;;;;6153691;28;80452;-69
2023/04/16 01:42:15;;;;;;;9.90;6.60;;;23.40;45.30;;;;;;6149588;28;81128;-72
2023/04/16 01:45:16;;;;;;;9.13;6.38;;;23.30;45.40;;;;;;6145172;28;82827;-69
2023/04/16 01:48:17;;;;;;;9.25;6.18;;;23.40;45.20;;;;;;6152036;28;80792;-70
2023/04/16 01:51:18;;;;;;;8.63;6.57;;;23.40;45.30;;;;;;6150888;28;80235;-66
2023/04/16 01:54:18;;;;;;;8.32;5.90;;;23.40;45.40;;;;;;6150104;28;83786;-63
2023/04/16 01:57:19;;;;;;;8.48;5.95;;;23.40;45.40;;;;;;6152889;28;80296;-64
2023/04/16 02:00:20;;;;;;;9.48;6.03;;;23.40;45.50;;;;;;6142894;28;83084;-63
2023/04/16 02:03:23;;;;;;;7.72;6.00;;;23.40;45.30;;;;;;6136161;28;81604;-66
2023/04/16 02:06:23;;;;;;;8.60;5.55;;;23.40;45.30;;;;;;6145630;28;83345;-64
2023/04/16 02:09:24;;;;;;;8.93;6.20;;;23.40;45.30;;;;;;6147538;28;83569;-64
2023/04/16 02:12:24;;;;;;;9.45;6.15;;;23.30;45.30;;;;;;6152417;28;80654;-70
2023/04/16 02:15:25;;;;;;;9.30;6.13;;;23.40;45.30;;;;;;6136159;28;83597;-71
2023/04/16 02:18:26;;;;;;;8.15;5.22;;;23.40;45.10;;;;;;6125579;28;82039;-71
2023/04/16 02:21:27;;;;;;;7.90;5.38;;;23.30;45.00;;;;;;6126749;28;81444;-73
2023/04/16 02:24:27;;;;;;;8.27;5.80;;;23.40;45.00;;;;;;6125535;28;83162;-68
2023/04/16 02:27:29;;;;;;;9.82;5.60;;;23.40;45.00;;;;;;6142794;28;80494;-67
2023/04/16 02:30:37;;;;;;;8.32;5.53;;;23.40;45.00;;;;;;6138558;28;83097;-70
2023/04/16 02:33:38;;;;;;;9.80;5.90;;;23.40;45.00;;;;;;6133538;28;82929;-69
2023/04/16 02:36:39;;;;;;;8.00;5.55;;;23.40;45.00;;;;;;6138466;28;81800;-67
2023/04/16 02:39:39;;;;;;;8.48;5.95;;;23.40;45.20;;;;;;6153734;28;83219;-67
2023/04/16 02:42:40;;;;;;;7.90;5.20;;;23.40;45.10;;;;;;6154056;28;83283;-67
2023/04/16 02:45:41;;;;;;;7.38;4.85;;;23.40;45.40;;;;;;6154699;28;83439;-67
2023/04/16 02:48:42;;;;;;;7.47;5.00;;;23.30;45.40;;;;;;6145208;28;87525;-64
2023/04/16 02:51:42;;;;;;;7.93;5.70;;;23.30;45.40;;;;;;6141602;28;80749;-64
2023/04/16 02:54:43;;;;;;;9.20;5.18;;;23.30;45.40;;;;;;6154911;28;82218;-63
2023/04/16 02:57:43;;;;;;;9.32;5.47;;;23.30;45.30;;;;;;6169540;28;83204;-66
2023/04/16 03:00:44;;;;;;;7.75;5.28;;;23.30;45.30;;;;;;6155811;28;80367;-66
2023/04/16 03:03:44;;;;;;;7.85;5.20;;;23.30;45.30;;;;;;6155526;28;80364;-68
2023/04/16 03:06:45;;;;;;;6.18;4.63;;;23.30;45.20;;;;;;6146534;28;80466;-67
2023/04/16 03:09:46;;;;;;;6.93;4.78;;;23.30;45.30;;;;;;6129089;28;81453;-66
2023/04/16 03:12:46;;;;;;;6.75;4.60;;;23.30;45.40;;;;;;6143294;28;80955;-67
2023/04/16 03:15:47;;;;;;;6.72;4.50;;;23.30;45.30;;;;;;6152423;28;83811;-68
2023/04/16 03:18:47;;;;;;;6.97;5.07;;;23.30;45.20;;;;;;6155618;28;81396;-68
2023/04/16 03:21:48;;;;;;;7.38;4.80;;;23.30;44.60;;;;;;6155966;28;80486;-67
2023/04/16 03:24:50;;;;;;;6.28;4.47;;;23.30;44.90;;;;;;6154799;28;80553;-69
2023/04/16 03:27:51;;;;;;;5.93;4.53;;;23.30;44.90;;;;;;6162159;28;81622;-68
2023/04/16 03:30:52;;;;;;;6.10;4.57;;;23.40;44.90;;;;;;6153959;28;82962;-68
2023/04/16 03:33:52;;;;;;;5.80;4.50;;;23.40;44.90;;;;;;6165437;28;80277;-69
2023/04/16 03:36:53;;;;;;;6.45;4.50;;;23.50;45.00;;;;;;6168160;28;82370;-70
2023/04/16 03:39:54;;;;;;;6.53;4.40;;;23.50;45.10;;;;;;6173857;28;81235;-71
2023/04/16 03:42:55;;;;;;;5.85;4.18;;;23.60;45.10;;;;;;6155086;28;82152;-66
2023/04/16 03:45:56;;;;;;;5.20;3.90;;;23.60;45.10;;;;;;6152919;28;82383;-65
2023/04/16 03:48:57;;;;;;;5.72;4.40;;;23.60;45.20;;;;;;6152445;28;82775;-70
2023/04/16 03:51:58;;;;;;;5.47;3.85;;;23.60;45.20;;;;;;6144573;28;83505;-70
2023/04/16 03:54:59;;;;;;;6.35;3.60;;;23.60;45.10;;;;;;6129256;28;83318;-71
2023/04/16 03:58:03;;;;;;;5.63;3.65;;;23.70;45.20;;;;;;6128815;28;83370;-71
2023/04/16 04:01:05;;;;;;;4.85;3.30;;;23.70;45.30;;;;;;6129111;28;83017;-69
2023/04/16 04:04:08;;;;;;;6.00;3.60;;;23.70;45.30;;;;;;6145302;28;80782;-70
2023/04/16 04:07:10;;;;;;;4.60;3.58;;;23.70;45.40;;;;;;6173880;28;83121;-73
2023/04/16 04:10:10;;;;;;;4.60;3.78;;;23.80;45.40;;;;;;6182325;28;82412;-73
2023/04/16 04:13:14;;;;;;;7.80;3.70;;;23.80;45.30;;;;;;6182356;28;83161;-73
2023/04/16 04:16:15;;;;;;;4.40;3.30;;;23.80;45.40;;;;;;6181312;28;81862;-71
2023/04/16 04:19:17;;;;;;;5.07;3.83;;;23.80;45.40;;;;;;6155600;28;82400;-64
2023/04/16 04:22:18;;;;;;;4.60;3.83;;;23.90;45.40;;;;;;6144255;28;83251;-64
2023/04/16 04:25:18;;;;;;;4.40;3.50;;;23.90;45.40;;;;;;6118615;28;81170;-63
2023/04/16 04:28:19;;;;;;;5.20;3.92;;;23.80;45.30;;;;;;6120317;28;83058;-65
2023/04/16 04:31:19;;;;;;;8.23;3.90;;;23.80;45.30;;;;;;6149372;28;83797;-65
2023/04/16 04:34:20;;;;;;;6.70;3.65;;;23.90;45.30;;;;;;6139571;28;80605;-66
2023/04/16 04:37:21;;;;;;;5.07;3.53;;;23.90;45.40;;;;;;6137238;28;82896;-65
2023/04/16 04:40:21;;;;;;;4.60;3.88;;;23.90;45.50;;;;;;6136429;28;83048;-65
2023/04/16 04:43:22;;;;;;;5.90;3.60;;;23.90;45.50;;;;;;6143257;28;80610;-66
2023/04/16 04:46:23;;;;;;;6.25;3.83;;;23.90;45.50;;;;;;6144929;28;83143;-62
2023/04/16 04:49:24;;;;;;;4.28;3.40;;;23.90;45.40;;;;;;6146266;28;80430;-63
2023/04/16 04:52:25;;;;;;;11.98;4.05;;;23.90;45.80;;;;;;6153414;28;81387;-70
2023/04/16 04:55:26;;;;;;;5.90;4.25;;;23.90;45.70;;;;;;6143401;28;82409;-65
2023/04/16 04:58:26;;;;;;;6.70;3.42;;;23.90;45.70;;;;;;6149915;28;81186;-64
2023/04/16 05:01:27;;;;;;;5.38;4.15;;;23.90;45.80;;;;;;6142466;28;83225;-69
2023/04/16 05:04:27;;;;;;;7.38;4.38;;;23.90;45.90;;;;;;6127903;28;80581;-66
2023/04/16 05:07:28;;;;;;;7.50;3.80;;;23.90;45.60;;;;;;6147561;28;80444;-67
2023/04/16 05:10:28;;;;;;;6.28;4.13;;;23.80;45.80;;;;;;6154345;28;80895;-67
2023/04/16 05:13:29;;;;;;;6.63;3.42;;;23.90;45.80;;;;;;6152308;28;80981;-61
2023/04/16 05:16:30;;;;;;;7.85;4.53;;;23.80;47.10;;;;;;6151570;28;80301;-61
2023/04/16 05:19:30;;;;;;;6.97;4.35;;;23.90;46.80;;;;;;6151892;28;80443;-61
2023/04/16 05:22:31;;;;;;;37.45;21.67;;;23.90;47.00;;;;;;6151091;28;83450;-60
2023/04/16 05:25:31;;;;;;;92.05;63.00;;;23.90;46.90;;;;;;6140286;28;82775;-60
2023/04/16 05:28:32;;;;;;;107.30;73.07;;;23.80;47.40;;;;;;6139091;28;83536;-60
2023/04/16 05:31:33;;;;;;;229.48;186.25;;;23.80;47.20;;;;;;6146448;28;83132;-61
2023/04/16 05:34:33;;;;;;;245.32;195.10;;;23.80;47.20;;;;;;6146690;28;85566;-62
2023/04/16 05:37:34;;;;;;;201.00;157.40;;;23.70;47.90;;;;;;6146663;28;85759;-62
2023/04/16 05:40:35;;;;;;;190.00;145.30;;;23.70;46.90;;;;;;6144608;28;89844;-63
2023/04/16 05:43:35;;;;;;;159.88;116.10;;;23.70;47.70;;;;;;6145896;28;85379;-60
2023/04/16 05:46:36;;;;;;;126.88;93.65;;;23.70;47.20;;;;;;6139511;28;90047;-64
2023/04/16 05:49:36;;;;;;;112.57;86.50;;;23.70;46.30;;;;;;6144619;28;85788;-61
2023/04/16 05:52:37;;;;;;;113.25;84.88;;;23.70;46.30;;;;;;6143006;28;83854;-61
2023/04/16 05:55:37;;;;;;;116.63;87.25;;;23.70;46.60;;;;;;6146821;28;83292;-62
2023/04/16 05:58:38;;;;;;;121.35;87.53;;;23.60;47.30;;;;;;6144920;28;84145;-64
2023/04/16 06:01:38;;;;;;;118.57;88.72;;;23.60;47.70;;;;;;6147084;28;83374;-64
2023/04/16 06:04:39;;;;;;;135.27;87.50;;;23.70;48.10;;;;;;6143222;28;84245;-65
2023/04/16 06:07:40;;;;;;;116.82;82.55;;;23.70;47.90;;;;;;6144769;28;83797;-62
2023/04/16 06:10:40;;;;;;;111.55;78.65;;;23.80;47.30;;;;;;6142619;28;83049;-63
2023/04/16 06:13:41;;;;;;;97.93;72.20;;;23.80;46.90;;;;;;6149648;28;88242;-60
2023/04/16 06:16:41;;;;;;;102.93;73.55;;;23.80;46.70;;;;;;6147806;28;84154;-62
2023/04/16 06:19:42;;;;;;;95.75;67.05;;;23.80;46.90;;;;;;6149107;28;84128;-61
2023/04/16 06:22:42;;;;;;;81.40;62.15;;;23.80;46.80;;;;;;6144315;28;83343;-62
2023/04/16 06:25:43;;;;;;;83.63;62.72;;;23.80;46.80;;;;;;6162983;28;84206;-63
2023/04/16 06:28:43;;;;;;;76.60;56.75;;;23.80;46.80;;;;;;6145693;28;83545;-60
2023/04/16 06:31:44;;;;;;;71.55;54.20;;;23.90;46.80;;;;;;6143518;28;83447;-60
2023/04/16 06:34:44;;;;;;;75.93;56.40;;;23.80;46.60;;;;;;6123224;28;83666;-61
2023/04/16 06:37:45;;;;;;;69.97;53.42;;;23.90;46.80;;;;;;6144275;28;83289;-61
2023/04/16 06:40:45;;;;;;;69.50;52.33;;;23.90;46.90;;;;;;6147918;28;84196;-61
2023/04/16 06:43:46;;;;;;;81.72;48.58;;;23.90;47.10;;;;;;6123315;28;83414;-61
2023/04/16 06:46:46;;;;;;;62.42;44.55;;;23.90;47.00;;;;;;6110793;28;84349;-61
2023/04/16 06:49:47;;;;;;;68.57;44.47;;;23.90;47.20;;;;;;6112947;28;83383;-62
2023/04/16 06:52:47;;;;;;;58.55;42.90;;;23.90;47.20;;;;;;6134016;28;86357;-62
2023/04/16 06:55:48;;;;;;;59.15;41.55;;;23.90;47.10;;;;;;6142172;28;87349;-63
2023/04/16 06:58:48;;;;;;;55.47;39.20;;;24.00;47.40;;;;;;6148977;28;83203;-61
2023/04/16 07:01:50;;;;;;;52.50;37.50;;;24.00;47.60;;;;;;6149739;28;83684;-63
2023/04/16 07:04:51;;;;;;;52.45;35.88;;;23.90;47.30;;;;;;6150363;28;83189;-69
2023/04/16 07:07:51;;;;;;;47.15;34.97;;;24.00;47.50;;;;;;6150543;28;83700;-67
2023/04/16 07:10:52;;;;;;;48.00;33.53;;;24.00;47.50;;;;;;6151369;28;84413;-68
2023/04/16 07:13:53;;;;;;;47.97;32.20;;;24.00;47.70;;;;;;6150015;28;82922;-67
2023/04/16 07:16:53;;;;;;;50.63;30.40;;;23.90;47.60;;;;;;6142036;28;88202;-68
2023/04/16 07:19:54;;;;;;;43.53;27.25;;;24.00;47.90;;;;;;6148248;28;84120;-66
2023/04/16 07:22:54;;;;;;;43.60;23.77;;;24.00;48.10;;;;;;6144531;28;88370;-61
2023/04/16 07:25:55;;;;;;;46.08;23.30;;;24.00;48.20;;;;;;6148303;28;84207;-60
2023/04/16 07:28:55;;;;;;;35.05;21.20;;;24.00;48.10;;;;;;6143478;28;84780;-59
2023/04/16 07:31:56;;;;;;;31.27;20.17;;;24.00;47.70;;;;;;6144385;28;89036;-58
2023/04/16 07:34:57;;;;;;;33.33;17.75;;;24.00;47.60;;;;;;6145852;28;83693;-58
2023/04/16 07:37:57;;;;;;;24.35;14.60;;;23.90;48.10;;;;;;6145479;28;83602;-57
2023/04/16 07:40:58;;;;;;;22.40;14.13;;;23.90;47.90;;;;;;6147614;28;85401;-71
2023/04/16 07:43:58;;;;;;;23.02;12.93;;;23.90;47.90;;;;;;6146699;28;84036;-70
2023/04/16 07:46:59;;;;;;;15.13;10.40;;;23.90;47.30;;;;;;6147278;28;83217;-73
2023/04/16 07:49:59;;;;;;;19.60;10.65;;;23.90;47.00;;;;;;6148055;28;83150;-66
2023/04/16 07:53:00;;;;;;;16.15;9.48;;;23.90;47.00;;;;;;6148876;28;83292;-69
2023/04/16 07:56:00;;;;;;;13.45;8.25;;;23.90;47.30;;;;;;6148858;28;81851;-65
2023/04/16 07:59:01;;;;;;;13.95;8.20;;;23.90;47.10;;;;;;6150587;28;81855;-69
2023/04/16 08:02:02;;;;;;;11.45;8.20;;;24.00;47.20;;;;;;6145171;28;81548;-70
2023/04/16 08:05:02;;;;;;;11.40;7.40;;;24.00;46.90;;;;;;6140239;28;81950;-71
2023/04/16 08:08:03;;;;;;;15.40;7.53;;;24.00;46.70;;;;;;6146461;28;81397;-72
2023/04/16 08:11:03;;;;;;;9.77;6.63;;;24.10;46.50;;;;;;6140044;28;81799;-64
2023/04/16 08:14:04;;;;;;;9.20;6.40;;;24.10;46.10;;;;;;6118177;28;80377;-67
2023/04/16 08:17:04;;;;;;;9.90;5.93;;;24.10;45.90;;;;;;6119546;28;81487;-71
2023/04/16 08:20:05;;;;;;;9.45;6.22;;;24.10;45.90;;;;;;6144029;28;80440;-67
2023/04/16 08:23:06;;;;;;;8.52;5.82;;;24.10;46.00;;;;;;6118569;28;80912;-62
2023/04/16 08:26:06;;;;;;;10.82;5.75;;;24.10;45.70;;;;;;6140478;28;83172;-63
2023/04/16 08:29:07;;;;;;;9.30;5.28;;;24.20;45.60;;;;;;6137065;28;86108;-61
2023/04/16 08:32:09;;;;;;;8.32;5.38;;;24.30;45.30;;;;;;6148644;28;80709;-62
2023/04/16 08:35:09;;;;;;;10.95;5.40;;;24.20;45.30;;;;;;6146273;28;82809;-63
2023/04/16 08:38:10;;;;;;;11.60;5.10;;;24.20;45.20;;;;;;6149996;28;80213;-58
2023/04/16 08:41:11;;;;;;;6.03;5.05;;;24.30;45.20;;;;;;6149813;28;82162;-60
2023/04/16 08:44:11;;;;;;;7.65;5.43;;;24.30;45.30;;;;;;6126834;28;80817;-58
2023/04/16 08:47:12;;;;;;;18.40;5.30;;;24.30;44.70;;;;;;6120404;28;80386;-58
2023/04/16 08:50:12;;;;;;;10.32;5.88;;;24.20;44.40;;;;;;6124597;28;83754;-59
2023/04/16 08:53:13;;;;;;;7.95;5.43;;;24.10;43.70;;;;;;6124703;28;80526;-59
2023/04/16 08:56:13;;;;;;;11.02;4.95;;;24.10;43.30;;;;;;6137463;28;80578;-59
2023/04/16 08:59:14;;;;;;;8.02;5.10;;;24.00;43.20;;;;;;6149654;28;81468;-59
2023/04/16 09:02:14;;;;;;;7.95;5.63;;;24.00;42.80;;;;;;6151674;28;80440;-59
2023/04/16 09:05:20;;;;;;;7.25;5.43;;;23.90;42.60;;;;;;6151264;28;80685;-58
2023/04/16 09:08:21;;;;;;;11.30;5.82;;;23.80;42.30;;;;;;6150876;28;80622;-58
2023/04/16 09:11:21;;;;;;;8.98;5.63;;;23.90;42.40;;;;;;6144476;28;80597;-68
2023/04/16 09:14:22;;;;;;;10.10;5.28;;;23.90;42.70;;;;;;6153115;28;81313;-62
2023/04/16 09:17:22;;;;;;;6.75;4.53;;;23.90;42.80;;;;;;6153783;28;80410;-59
2023/04/16 09:20:23;;;;;;;9.98;5.10;;;23.90;42.30;;;;;;6146379;28;80563;-60
2023/04/16 09:23:24;;;;;;;5.32;4.32;;;23.10;41.80;;;;;;6153716;28;80487;-60
2023/04/16 09:26:24;;;;;;;6.50;4.93;;;23.10;42.60;;;;;;6150480;28;81875;-60
2023/04/16 09:29:25;;;;;;;5.57;4.43;;;23.30;42.50;;;;;;6147964;28;80887;-60
2023/04/16 09:32:28;;;;;;;8.32;4.90;;;23.40;42.50;;;;;;6154032;28;80737;-62
2023/04/16 09:35:29;;;;;;;5.47;4.50;;;23.50;42.60;;;;;;6155502;28;80305;-64
2023/04/16 09:38:29;;;;;;;6.13;4.53;;;23.60;42.40;;;;;;6154399;28;81601;-63
2023/04/16 09:41:30;;;;;;;4.82;3.90;;;23.70;42.10;;;;;;6143355;28;80258;-60
2023/04/16 09:44:30;;;;;;;6.82;4.25;;;23.70;42.00;;;;;;6152183;28;80772;-72
2023/04/16 09:47:31;;;;;;;4.93;4.07;;;23.80;41.70;;;;;;6150751;28;80519;-68
2023/04/16 09:50:31;;;;;;;6.18;4.05;;;23.80;41.70;;;;;;6156462;28;80394;-69
2023/04/16 09:53:32;;;;;;;5.43;3.95;;;23.80;41.60;;;;;;6172609;28;81932;-69
2023/04/16 09:56:32;;;;;;;5.95;4.50;;;23.90;41.10;;;;;;6161340;28;81544;-69
2023/04/16 09:59:33;;;;;;;4.38;3.75;;;23.90;41.10;;;;;;6158099;28;80093;-74
2023/04/16 10:02:33;;;;;;;3.65;3.17;;;23.90;40.40;;;;;;6155483;28;82385;-72
2023/04/16 10:05:34;;;;;;;5.15;3.45;;;23.80;40.90;;;;;;6158378;28;84428;-67
2023/04/16 10:08:35;;;;;;;5.78;3.58;;;23.80;40.70;;;;;;6149775;28;82343;-68
2023/04/16 10:11:35;;;;;;;4.47;3.50;;;23.80;40.50;;;;;;6152264;28;80790;-68
2023/04/16 10:14:36;;;;;;;4.97;3.50;;;23.80;40.40;;;;;;6149030;28;86251;-69
2023/04/16 10:17:36;;;;;;;3.58;3.00;;;23.90;40.60;;;;;;6149431;28;82034;-68
2023/04/16 10:20:37;;;;;;;4.03;3.10;;;23.90;40.40;;;;;;6143011;28;81716;-67
2023/04/16 10:23:38;;;;;;;4.55;3.17;;;23.80;40.00;;;;;;6127800;28;79993;-66
2023/04/16 10:26:38;;;;;;;8.75;3.47;;;23.80;40.00;;;;;;6123224;28;82856;-69
2023/04/16 10:29:39;;;;;;;2.88;2.55;;;23.90;40.00;;;;;;6136903;28;80614;-63
2023/04/16 10:32:39;;;;;;;5.10;3.00;;;24.00;40.40;;;;;;6148233;28;80953;-65
2023/04/16 10:35:40;;;;;;;14.45;4.55;;;24.00;40.90;;;;;;6145535;28;80733;-70
2023/04/16 10:38:40;;;;;;;25.20;4.60;;;24.00;41.00;;;;;;6146965;28;80207;-68
2023/04/16 10:41:41;;;;;;;20.35;5.88;;;23.90;41.30;;;;;;6114051;28;80678;-69
2023/04/16 10:44:42;;;;;;;16.52;4.72;;;24.00;42.40;;;;;;6104528;28;83223;-60
2023/04/16 10:47:42;;;;;;;13.05;4.85;;;24.00;42.50;;;;;;6116754;28;81304;-59
2023/04/16 10:50:43;;;;;;;15.50;4.38;;;24.00;42.30;;;;;;6102383;28;80832;-58
2023/04/16 10:53:43;;;;;;;9.55;3.28;;;24.10;42.00;;;;;;6099584;28;81142;-59
2023/04/16 10:56:44;;;;;;;4.70;2.65;;;23.80;40.20;;;;;;6112505;28;80794;-60
2023/04/16 10:59:44;;;;;;;7.05;2.83;;;23.60;40.50;;;;;;6116751;28;81630;-59
2023/04/16 11:02:45;;;;;;;6.32;2.65;;;23.80;40.50;;;;;;6111626;28;81658;-63
2023/04/16 11:05:46;;;;;;;9.55;3.75;;;23.90;41.20;;;;;;6118360;28;80508;-61
2023/04/16 11:08:46;;;;;;;8.70;3.22;;;23.80;40.70;;;;;;6113541;28;80547;-63
2023/04/16 11:11:47;;;;;;;14.32;4.15;;;24.00;41.10;;;;;;6149709;28;81872;-62
2023/04/16 11:14:47;;;;;;;8.05;3.20;;;24.00;41.20;;;;;;6153788;28;80977;-62
2023/04/16 11:17:49;;;;;;;4.20;2.40;;;24.00;40.20;;;;;;6150724;28;84798;-65
2023/04/16 11:20:49;;;;;;;4.10;2.60;;;23.80;40.00;;;;;;6148819;28;80727;-61
2023/04/16 11:23:50;;;;;;;4.38;2.38;;;23.80;40.50;;;;;;6148682;28;80448;-70
2023/04/16 11:26:51;;;;;;;3.58;2.55;;;23.80;40.60;;;;;;6150202;28;81117;-65
2023/04/16 11:29:51;;;;;;;7.43;2.63;;;23.90;40.30;;;;;;6150237;28;81338;-63
2023/04/16 11:32:52;;;;;;;4.30;2.50;;;23.90;40.00;;;;;;6151109;28;80352;-64
2023/04/16 11:35:52;;;;;;;3.28;2.40;;;23.90;39.90;;;;;;6147906;28;81777;-63
2023/04/16 11:38:53;;;;;;;3.17;2.10;;;23.70;39.00;;;;;;6145670;28;84008;-66
2023/04/16 11:41:54;;;;;;;3.38;2.30;;;23.70;39.40;;;;;;6152043;28;80870;-63
2023/04/16 11:44:55;;;;;;;3.08;2.33;;;23.80;39.10;;;;;;6138255;28;87097;-66
2023/04/16 11:47:56;;;;;;;2.60;2.10;;;23.70;38.90;;;;;;6133988;28;80340;-65
2023/04/16 11:50:57;;;;;;;4.55;2.17;;;23.70;39.50;;;;;;6148788;28;80209;-71
2023/04/16 11:53:57;;;;;;;2.40;2.08;;;23.80;39.40;;;;;;6145528;28;80573;-66
2023/04/16 11:56:58;;;;;;;7.60;2.33;;;23.80;39.70;;;;;;6151199;28;82352;-62
2023/04/16 11:59:58;;;;;;;3.38;2.30;;;23.90;39.90;;;;;;6150001;28;80531;-61
2023/04/16 12:02:59;;;;;;;7.25;1.90;;;24.00;39.90;;;;;;6142982;28;81246;-60
2023/04/16 12:05:59;;;;;;;4.38;1.92;;;24.00;39.60;;;;;;6151583;28;85864;-59
2023/04/16 12:09:00;;;;;;;10.43;3.45;;;24.00;39.80;;;;;;6150677;28;80631;-60
2023/04/16 12:12:01;;;;;;;3.58;2.40;;;24.00;40.20;;;;;;6149363;28;80690;-58
2023/04/16 12:15:02;;;;;;;3.42;2.22;;;24.10;41.00;;;;;;6146920;28;80460;-60
2023/04/16 12:18:03;;;;;;;3.83;2.33;;;24.10;40.20;;;;;;6146617;28;81974;-69
2023/04/16 12:21:03;;;;;;;9.48;2.00;;;24.10;39.80;;;;;;6147872;28;83854;-71
2023/04/16 12:24:04;;;;;;;3.70;1.73;;;23.90;39.70;;;;;;6146257;28;83006;-68
2023/04/16 12:27:05;;;;;;;3.80;2.10;;;24.00;40.10;;;;;;6151681;28;80859;-69
2023/04/16 12:30:06;;;;;;;3.70;2.33;;;24.00;39.10;;;;;;6146863;28;80903;-74
2023/04/16 12:33:07;;;;;;;2.70;1.92;;;23.50;38.80;;;;;;6143964;28;81598;-72
2023/04/16 12:36:08;;;;;;;2.92;2.00;;;23.40;38.70;;;;;;6149909;28;81611;-67
2023/04/16 12:39:09;;;;;;;3.42;2.38;;;23.30;38.60;;;;;;6158547;28;80374;-66
2023/04/16 12:42:11;;;;;;;3.28;2.10;;;23.50;38.40;;;;;;6153304;28;83216;-65
2023/04/16 12:45:12;;;;;;;3.05;2.10;;;23.60;37.90;;;;;;6142944;28;82891;-62
2023/04/16 12:48:12;;;;;;;2.42;1.95;;;23.60;38.50;;;;;;6133522;28;82505;-62
2023/04/16 12:51:13;;;;;;;2.13;1.90;;;23.80;38.90;;;;;;6128138;28;83903;-61
2023/04/16 12:54:13;;;;;;;2.50;1.95;;;24.00;39.50;;;;;;6104776;28;80413;-61
2023/04/16 12:57:14;;;;;;;3.22;1.90;;;24.10;37.80;;;;;;6089632;28;88227;-60
2023/04/16 13:00:15;;;;;;;3.88;2.10;;;24.00;38.20;;;;;;6131121;28;80873;-63
2023/04/16 13:03:16;;;;;;;2.17;1.75;;;24.10;38.30;;;;;;6135990;28;85306;-61
2023/04/16 13:06:16;;;;;;;2.08;1.85;;;24.20;38.80;;;;;;6134341;28;81223;-61
2023/04/16 13:09:19;;;;;;;2.30;1.92;;;24.30;39.00;;;;;;6130209;28;80444;-62
2023/04/16 13:12:19;;;;;;;2.78;2.22;;;24.20;38.60;;;;;;6131574;28;80856;-63
2023/04/16 13:15:20;;;;;;;4.80;2.95;;;24.30;37.70;;;;;;6132288;28;82381;-68
2023/04/16 13:18:20;;;;;;;3.83;2.45;;;24.20;37.00;;;;;;6132858;28;81552;-67
2023/04/16 13:21:22;;;;;;;4.20;2.65;;;24.10;37.30;;;;;;6130288;28;86003;-67
2023/04/16 13:24:23;;;;;;;5.45;2.63;;;24.10;37.20;;;;;;6136643;28;83293;-66
2023/04/16 13:27:23;;;;;;;14.82;2.50;;;24.10;37.20;;;;;;6135885;28;86112;-73
2023/04/16 13:30:24;;;;;;;5.28;2.70;;;24.10;39.40;;;;;;6135178;28;81373;-60
2023/04/16 13:33:24;;;;;;;5.50;2.38;;;24.10;41.40;;;;;;6148268;28;80585;-59
2023/04/16 13:36:26;;;;;;;3.33;2.53;;;24.10;41.60;;;;;;6130383;28;80900;-59
2023/04/16 13:39:26;;;;;;;3.10;2.33;;;24.10;45.50;;;;;;6127528;28;82052;-61
2023/04/16 13:42:27;;;;;;;3.72;2.30;;;24.10;47.40;;;;;;6143260;28;82806;-61
2023/04/16 13:45:27;;;;;;;3.22;2.33;;;24.10;45.50;;;;;;6146927;28;80965;-61
2023/04/16 13:48:28;;;;;;;3.03;2.33;;;24.10;49.90;;;;;;6147813;28;80640;-65
2023/04/16 13:51:29;;;;;;;3.22;2.33;;;24.10;52.50;;;;;;6144987;28;81690;-71
2023/04/16 13:54:30;;;;;;;5.03;2.33;;;24.10;48.30;;;;;;6141582;28;81994;-66
2023/04/16 13:57:31;;;;;;;4.57;2.30;;;24.10;49.90;;;;;;6139077;28;81943;-66
2023/04/16 14:00:31;;;;;;;3.33;2.22;;;24.00;50.10;;;;;;6144063;28;82398;-67
2023/04/16 14:03:37;;;;;;;3.75;2.45;;;23.80;43.20;;;;;;6148696;28;85901;-64
2023/04/16 14:06:37;;;;;;;2.22;1.70;;;23.90;45.90;;;;;;6147036;28;84839;-59
2023/04/16 14:09:38;;;;;;;5.18;2.00;;;23.90;43.70;;;;;;6147280;28;80843;-60
2023/04/16 14:12:38;;;;;;;3.83;2.03;;;23.90;43.60;;;;;;6136516;28;81483;-62
2023/04/16 14:15:39;;;;;;;4.38;2.33;;;23.90;44.40;;;;;;6127510;28;81125;-63
2023/04/16 14:18:41;;;;;;;2.67;2.10;;;23.90;42.40;;;;;;6127658;28;80506;-64
2023/04/16 14:21:41;;;;;;;2.42;2.00;;;23.90;43.00;;;;;;6124890;28;81458;-65
2023/04/16 14:24:42;;;;;;;2.60;2.22;;;24.00;43.90;;;;;;6137161;28;80746;-68
2023/04/16 14:27:42;;;;;;;6.00;2.42;;;24.00;44.00;;;;;;6150294;28;81239;-66
2023/04/16 14:30:43;;;;;;;3.30;2.13;;;24.00;45.20;;;;;;6138623;28;83595;-63
2023/04/16 14:33:43;;;;;;;3.50;2.50;;;24.00;45.40;;;;;;6141422;28;80311;-64
2023/04/16 14:36:44;;;;;;;3.05;1.88;;;24.00;46.70;;;;;;6156838;28;80524;-62
2023/04/16 14:39:45;;;;;;;8.32;2.47;;;24.10;46.50;;;;;;6155680;28;80839;-62
2023/04/16 14:42:45;;;;;;;4.57;2.00;;;24.10;48.00;;;;;;6155941;28;80897;-64
2023/04/16 14:45:46;;;;;;;3.95;2.25;;;24.10;47.70;;;;;;6153798;28;82811;-63
2023/04/16 14:48:46;;;;;;;4.32;2.35;;;24.10;48.40;;;;;;6153158;28;80725;-67
2023/04/16 14:51:47;;;;;;;3.70;2.42;;;24.10;48.50;;;;;;6154382;28;81018;-61
2023/04/16 14:54:47;;;;;;;4.15;2.22;;;24.20;48.90;;;;;;6152667;28;80576;-62
2023/04/16 14:57:48;;;;;;;7.95;2.80;;;24.20;48.80;;;;;;6155101;28;80936;-64
2023/04/16 15:00:49;;;;;;;6.68;2.92;;;24.10;49.10;;;;;;6154929;28;80470;-62
2023/04/16 15:03:49;;;;;;;8.45;2.67;;;24.10;49.50;;;;;;6153444;28;80871;-61
2023/04/16 15:06:50;;;;;;;6.18;2.90;;;24.10;49.50;;;;;;6144886;28;80494;-61
2023/04/16 15:09:51;;;;;;;3.83;2.33;;;24.20;51.50;;;;;;6154066;28;80189;-60
2023/04/16 15:12:51;;;;;;;5.47;2.38;;;24.20;50.90;;;;;;6155004;28;80248;-61
2023/04/16 15:15:52;;;;;;;8.40;3.15;;;24.20;52.00;;;;;;6151639;28;80435;-61
2023/04/16 15:18:52;;;;;;;6.80;2.28;;;24.10;52.00;;;;;;6150356;28;81931;-61
2023/04/16 15:21:54;;;;;;;8.18;2.58;;;24.10;54.50;;;;;;6151255;28;86038;-60
2023/04/16 15:24:55;;;;;;;8.30;2.50;;;24.10;54.50;;;;;;6152200;28;80719;-60
2023/04/16 15:27:55;;;;;;;7.95;2.55;;;24.10;54.10;;;;;;6152842;28;80602;-63
2023/04/16 15:30:56;;;;;;;5.38;2.40;;;24.10;54.60;;;;;;6149091;28;80617;-63
2023/04/16 15:33:58;;;;;;;2.45;2.10;;;24.10;54.10;;;;;;6145760;28;81293;-63